createdAt,value
2023-05-18T00:01:16.877Z,99.90
2023-05-18T00:03:43.850Z,99.80
2023-05-18T00:06:10.951Z,99.90
2023-05-18T00:08:38.648Z,99.90
2023-05-18T00:11:06.696Z,99.90
2023-05-18T00:13:33.614Z,99.90
2023-05-18T00:16:00.592Z,99.70
2023-05-18T00:18:28.197Z,99.90
2023-05-18T00:21:02.108Z,99.90
2023-05-18T00:23:30.743Z,99.90
2023-05-18T00:25:59.316Z,99.90
2023-05-18T00:28:26.630Z,99.90
2023-05-18T00:30:54.589Z,99.70
2023-05-18T00:33:21.983Z,99.90
2023-05-18T00:35:48.716Z,99.90
2023-05-18T00:38:15.525Z,99.90
2023-05-18T00:40:42.726Z,99.90
2023-05-18T00:43:09.884Z,99.90
2023-05-18T00:45:36.898Z,99.80
2023-05-18T00:48:03.921Z,99.90
2023-05-18T00:50:30.835Z,99.80
2023-05-18T00:52:57.785Z,99.90
2023-05-18T00:55:24.620Z,99.70
2023-05-18T00:57:51.761Z,99.80
2023-05-18T01:00:20.651Z,99.90
2023-05-18T01:02:47.508Z,99.90
2023-05-18T01:05:14.345Z,99.70
2023-05-18T01:07:44.829Z,99.90
2023-05-18T01:10:13.302Z,99.90
2023-05-18T01:12:49.289Z,99.60
2023-05-18T01:15:23.511Z,99.90
2023-05-18T01:18:21.890Z,99.90
2023-05-18T01:21:19.281Z,99.90
2023-05-18T01:24:16.405Z,99.90
2023-05-18T01:26:45.165Z,99.90
2023-05-18T01:29:14.064Z,99.90
2023-05-18T01:31:41.027Z,99.80
2023-05-18T01:34:07.669Z,99.90
2023-05-18T01:36:34.316Z,99.90
2023-05-18T01:39:02.128Z,99.80
2023-05-18T01:41:30.290Z,99.90
2023-05-18T01:44:02.522Z,99.90
2023-05-18T01:46:51.595Z,99.90
2023-05-18T01:49:52.031Z,99.90
2023-05-18T01:52:24.704Z,99.90
2023-05-18T01:54:56.253Z,99.90
2023-05-18T01:57:27.304Z,99.90
2023-05-18T01:59:55.442Z,99.90
2023-05-18T02:02:22.333Z,99.90
2023-05-18T02:04:49.589Z,99.90
2023-05-18T02:07:16.366Z,99.90
2023-05-18T02:09:44.345Z,99.90
2023-05-18T02:12:11.763Z,99.90
2023-05-18T02:14:38.570Z,99.90
2023-05-18T02:17:07.206Z,99.90
2023-05-18T02:19:38.213Z,99.90
2023-05-18T02:22:08.280Z,99.90
2023-05-18T02:24:34.942Z,99.90
2023-05-18T02:27:02.123Z,99.90
2023-05-18T02:29:28.782Z,99.90
2023-05-18T02:31:55.518Z,99.90
2023-05-18T02:34:22.975Z,99.90
2023-05-18T02:36:49.750Z,99.90
2023-05-18T02:39:16.610Z,99.90
2023-05-18T02:41:43.262Z,99.90
2023-05-18T02:44:12.262Z,99.90
2023-05-18T02:46:38.951Z,99.90
2023-05-18T02:49:05.847Z,99.90
2023-05-18T02:51:32.887Z,99.90
2023-05-18T02:53:59.731Z,99.90
2023-05-18T02:56:26.388Z,99.90
2023-05-18T02:58:57.939Z,99.90
2023-05-18T03:01:27.106Z,99.90
2023-05-18T03:03:54.680Z,99.90
2023-05-18T03:06:26.568Z,99.90
2023-05-18T03:08:54.398Z,99.90
2023-05-18T03:11:22.511Z,99.90
2023-05-18T03:13:49.738Z,99.90
2023-05-18T03:16:16.510Z,99.90
2023-05-18T03:18:43.253Z,99.90
2023-05-18T03:21:10.071Z,99.90
2023-05-18T03:23:36.803Z,99.90
2023-05-18T03:26:03.922Z,99.90
2023-05-18T03:28:30.897Z,99.90
2023-05-18T03:30:58.051Z,99.90
2023-05-18T03:33:24.802Z,99.90
2023-05-18T03:35:52.280Z,99.90
2023-05-18T03:38:19.417Z,99.90
2023-05-18T03:40:46.139Z,99.90
2023-05-18T03:43:12.896Z,99.90
2023-05-18T03:45:39.646Z,99.90
2023-05-18T03:48:06.529Z,99.90
2023-05-18T03:50:33.753Z,99.90
2023-05-18T03:53:00.464Z,99.90
2023-05-18T03:55:27.441Z,99.90
2023-05-18T03:57:54.767Z,99.90
2023-05-18T04:00:21.647Z,99.90
2023-05-18T04:02:51.812Z,99.90
2023-05-18T04:05:19.211Z,99.90
2023-05-18T04:07:46.760Z,99.90
2023-05-18T04:10:14.227Z,99.90
2023-05-18T04:12:41.017Z,99.90
2023-05-18T04:15:08.305Z,99.90
2023-05-18T04:17:35.633Z,99.90
2023-05-18T04:20:04.742Z,99.90
2023-05-18T04:22:32.274Z,99.90
2023-05-18T04:24:58.919Z,99.90
2023-05-18T04:27:25.722Z,99.90
2023-05-18T04:29:52.435Z,99.90
2023-05-18T04:32:20.724Z,99.90
2023-05-18T04:34:49.687Z,99.90
2023-05-18T04:37:17.956Z,99.90
2023-05-18T04:39:44.630Z,99.90
2023-05-18T04:42:14.125Z,99.90
2023-05-18T04:44:40.849Z,99.90
2023-05-18T04:47:08.435Z,99.90
2023-05-18T04:49:35.350Z,99.90
2023-05-18T04:52:02.165Z,99.90
2023-05-18T04:54:32.839Z,99.90
2023-05-18T04:56:59.849Z,99.90
2023-05-18T04:59:26.621Z,99.90
2023-05-18T05:01:53.926Z,99.90
2023-05-18T05:04:23.952Z,99.90
2023-05-18T05:06:50.767Z,99.90
2023-05-18T05:09:18.012Z,99.90
2023-05-18T05:11:44.740Z,99.90
2023-05-18T05:14:11.686Z,99.90
2023-05-18T05:16:39.018Z,99.90
2023-05-18T05:19:06.082Z,99.90
2023-05-18T05:21:32.970Z,99.90
2023-05-18T05:24:01.626Z,99.90
2023-05-18T05:26:28.319Z,99.90
2023-05-18T05:28:54.973Z,99.90
2023-05-18T05:31:21.661Z,99.90
2023-05-18T05:33:48.324Z,99.90
2023-05-18T05:36:15.100Z,99.90
2023-05-18T05:38:42.149Z,99.90
2023-05-18T05:41:08.815Z,99.90
2023-05-18T05:43:35.549Z,99.90
2023-05-18T05:46:02.632Z,99.90
2023-05-18T05:48:29.275Z,99.90
2023-05-18T05:50:56.167Z,99.90
2023-05-18T05:53:23.580Z,99.90
2023-05-18T05:55:50.342Z,99.90
2023-05-18T05:58:17.003Z,99.90
2023-05-18T06:00:43.717Z,99.90
2023-05-18T06:03:10.595Z,99.90
2023-05-18T06:05:37.495Z,99.90
2023-05-18T06:08:04.826Z,99.90
2023-05-18T06:10:31.500Z,99.90
2023-05-18T06:12:58.573Z,99.90
2023-05-18T06:15:25.422Z,99.90
2023-05-18T06:17:52.126Z,99.90
2023-05-18T06:20:19.018Z,99.90
2023-05-18T06:22:45.711Z,99.90
2023-05-18T06:25:12.377Z,99.90
2023-05-18T06:27:39.115Z,99.90
2023-05-18T06:30:07.855Z,99.90
2023-05-18T06:32:34.720Z,99.90
2023-05-18T06:35:01.376Z,99.90
2023-05-18T06:37:28.064Z,99.90
2023-05-18T06:39:54.695Z,99.90
2023-05-18T06:42:21.518Z,99.90
2023-05-18T06:44:50.358Z,99.90
2023-05-18T06:47:17.392Z,99.90
2023-05-18T06:49:44.291Z,99.90
2023-05-18T06:52:11.070Z,99.90
2023-05-18T06:54:38.364Z,99.90
2023-05-18T06:57:05.241Z,99.90
2023-05-18T06:59:31.917Z,99.90
2023-05-18T07:01:58.703Z,99.90
2023-05-18T07:04:25.568Z,99.90
2023-05-18T07:06:55.749Z,99.90
2023-05-18T07:09:23.481Z,99.90
2023-05-18T07:11:50.603Z,99.90
2023-05-18T07:14:17.261Z,99.90
2023-05-18T07:16:46.999Z,99.90
2023-05-18T07:19:14.331Z,99.90
2023-05-18T07:21:41.354Z,99.90
2023-05-18T07:24:08.131Z,99.90
2023-05-18T07:26:34.930Z,99.90
2023-05-18T07:29:01.776Z,99.90
2023-05-18T07:31:28.553Z,99.90
2023-05-18T07:33:55.570Z,99.90
2023-05-18T07:36:22.268Z,99.90
2023-05-18T07:38:54.753Z,99.90
2023-05-18T07:41:26.123Z,99.90
2023-05-18T07:43:52.833Z,99.90
2023-05-18T07:46:19.793Z,99.90
2023-05-18T07:48:46.515Z,99.90
2023-05-18T07:51:13.430Z,99.90
2023-05-18T07:53:41.500Z,99.90
2023-05-18T07:56:08.602Z,99.90
2023-05-18T07:58:36.645Z,99.90
2023-05-18T08:01:03.958Z,99.90
2023-05-18T08:03:30.916Z,99.90
2023-05-18T08:05:57.596Z,99.90
2023-05-18T08:08:24.413Z,99.90
2023-05-18T08:10:52.134Z,99.90
2023-05-18T08:13:19.227Z,99.90
2023-05-18T08:15:50.925Z,99.90
2023-05-18T08:18:23.329Z,99.90
2023-05-18T08:20:53.804Z,99.90
2023-05-18T08:23:20.581Z,99.90
2023-05-18T08:25:47.495Z,99.90
2023-05-18T08:28:14.165Z,99.90
2023-05-18T08:30:40.801Z,99.50
2023-05-18T08:33:08.039Z,99.70
2023-05-18T08:35:34.982Z,99.90
2023-05-18T08:38:02.953Z,99.80
2023-05-18T08:40:39.341Z,99.10
2023-05-18T08:43:20.817Z,99.00
2023-05-18T08:45:58.838Z,99.90
2023-05-18T08:48:28.407Z,99.70
2023-05-18T08:50:57.520Z,99.00
2023-05-18T08:53:25.531Z,99.50
2023-05-18T08:55:56.831Z,99.00
2023-05-18T08:58:32.492Z,98.30
2023-05-18T09:00:59.337Z,98.00
2023-05-18T09:03:26.485Z,97.90
2023-05-18T09:05:53.556Z,97.70
2023-05-18T09:08:20.570Z,97.50
2023-05-18T09:10:49.246Z,97.80
2023-05-18T09:13:20.709Z,97.30
2023-05-18T09:15:47.704Z,97.20
2023-05-18T09:18:14.600Z,96.60
2023-05-18T09:20:41.470Z,98.20
2023-05-18T09:23:08.247Z,97.40
2023-05-18T09:25:36.980Z,95.80
2023-05-18T09:28:04.983Z,95.40
2023-05-18T09:30:40.498Z,94.40
2023-05-18T09:33:17.109Z,95.50
2023-05-18T09:35:46.329Z,94.30
2023-05-18T09:38:21.742Z,94.20
2023-05-18T09:40:49.886Z,93.50
2023-05-18T09:43:20.464Z,93.60
2023-05-18T09:45:49.223Z,92.20
2023-05-18T09:48:16.786Z,92.80
2023-05-18T09:50:44.967Z,92.80
2023-05-18T09:53:13.489Z,93.50
2023-05-18T09:55:49.921Z,91.20
2023-05-18T09:58:17.393Z,90.30
2023-05-18T10:00:51.459Z,90.40
2023-05-18T10:03:20.494Z,91.10
2023-05-18T10:05:47.902Z,91.40
2023-05-18T10:08:16.106Z,88.70
2023-05-18T10:10:45.694Z,84.30
2023-05-18T10:13:14.700Z,86.60
2023-05-18T10:16:08.163Z,87.10
2023-05-18T10:18:37.283Z,88.20
2023-05-18T10:21:09.953Z,86.70
2023-05-18T10:23:37.307Z,87.70
2023-05-18T10:26:07.107Z,88.20
2023-05-18T10:28:41.335Z,85.10
2023-05-18T10:31:09.159Z,85.40
2023-05-18T10:33:37.605Z,86.10
2023-05-18T10:36:05.417Z,86.80
2023-05-18T10:38:33.118Z,88.30
2023-05-18T10:41:00.971Z,86.40
2023-05-18T10:43:28.972Z,86.60
2023-05-18T10:46:07.414Z,87.10
2023-05-18T10:48:39.467Z,86.00
2023-05-18T10:51:07.839Z,89.20
2023-05-18T10:53:36.576Z,84.90
2023-05-18T10:56:03.747Z,86.10
2023-05-18T10:58:32.000Z,86.90
2023-05-18T11:01:06.366Z,84.00
2023-05-18T11:03:33.485Z,85.40
2023-05-18T11:06:14.996Z,85.00
2023-05-18T11:08:50.390Z,85.60
2023-05-18T11:11:19.434Z,86.60
2023-05-18T11:13:49.725Z,85.60
2023-05-18T11:16:17.412Z,83.90
2023-05-18T11:18:46.645Z,84.50
2023-05-18T11:21:36.361Z,83.30
2023-05-18T11:24:29.235Z,85.90
2023-05-18T11:26:59.045Z,83.50
2023-05-18T11:29:36.171Z,82.70
2023-05-18T11:32:04.841Z,83.20
2023-05-18T11:34:45.543Z,83.90
2023-05-18T11:37:16.918Z,83.60
2023-05-18T11:40:00.399Z,82.00
2023-05-18T11:42:33.492Z,81.80
2023-05-18T11:45:12.798Z,80.60
2023-05-18T11:47:41.063Z,81.10
2023-05-18T11:50:09.449Z,81.60
2023-05-18T11:52:51.363Z,80.70
2023-05-18T11:55:20.151Z,80.20
2023-05-18T11:57:52.560Z,80.40
2023-05-18T12:00:20.478Z,79.20
2023-05-18T12:02:48.758Z,80.10
2023-05-18T12:05:15.939Z,80.20
2023-05-18T12:07:42.970Z,80.40
2023-05-18T12:10:12.327Z,79.10
2023-05-18T12:12:40.056Z,80.90
2023-05-18T12:15:11.379Z,78.90
2023-05-18T12:17:40.594Z,79.50
2023-05-18T12:20:12.354Z,78.90
2023-05-18T12:22:43.241Z,76.60
2023-05-18T12:25:10.729Z,75.40
2023-05-18T12:27:45.118Z,78.10
2023-05-18T12:30:16.585Z,77.10
2023-05-18T12:32:47.945Z,76.20
2023-05-18T12:35:14.794Z,76.10
2023-05-18T12:37:46.216Z,76.00
2023-05-18T12:40:15.574Z,75.30
2023-05-18T12:42:55.240Z,76.70
2023-05-18T12:45:25.127Z,75.50
2023-05-18T12:47:54.673Z,75.60
2023-05-18T12:50:23.411Z,75.60
2023-05-18T12:52:50.364Z,76.00
2023-05-18T12:55:22.102Z,74.60
2023-05-18T12:58:07.355Z,75.90
2023-05-18T13:00:37.937Z,74.70
2023-05-18T13:03:13.528Z,75.20
2023-05-18T13:05:46.396Z,77.50
2023-05-18T13:08:21.826Z,77.20
2023-05-18T13:10:58.051Z,76.30
2023-05-18T13:13:28.343Z,76.80
2023-05-18T13:15:55.153Z,76.80
2023-05-18T13:18:21.823Z,75.60
2023-05-18T13:20:54.124Z,77.20
2023-05-18T13:23:21.958Z,77.40
2023-05-18T13:25:49.338Z,76.70
2023-05-18T13:28:18.256Z,77.60
2023-05-18T13:30:47.330Z,79.30
2023-05-18T13:33:14.211Z,81.90
2023-05-18T13:35:42.542Z,81.90
2023-05-18T13:38:13.823Z,80.80
2023-05-18T13:40:41.539Z,82.00
2023-05-18T13:43:10.931Z,83.30
2023-05-18T13:45:39.754Z,81.90
2023-05-18T13:48:09.385Z,82.40
2023-05-18T13:50:37.014Z,81.80
2023-05-18T13:53:03.985Z,82.50
2023-05-18T13:55:31.022Z,83.40
2023-05-18T13:57:57.940Z,84.90
2023-05-18T14:00:25.051Z,83.00
2023-05-18T14:02:53.456Z,81.60
2023-05-18T14:05:20.607Z,82.90
2023-05-18T14:07:47.364Z,83.80
2023-05-18T14:10:14.242Z,83.40
2023-05-18T14:12:42.701Z,83.00
2023-05-18T14:15:10.890Z,82.80
2023-05-18T14:17:38.442Z,83.20
2023-05-18T14:20:06.118Z,84.00
2023-05-18T14:22:33.038Z,83.50
2023-05-18T14:24:59.809Z,84.30
2023-05-18T14:27:27.188Z,84.30
2023-05-18T14:29:53.856Z,84.40
2023-05-18T14:32:23.735Z,84.40
2023-05-18T14:34:52.109Z,85.90
2023-05-18T14:37:18.949Z,85.20
2023-05-18T14:39:45.869Z,85.00
2023-05-18T14:42:12.843Z,84.70
2023-05-18T14:44:39.506Z,84.40
2023-05-18T14:47:06.537Z,83.70
2023-05-18T14:49:33.425Z,84.90
2023-05-18T14:52:00.113Z,84.20
2023-05-18T14:54:26.932Z,83.70
2023-05-18T14:56:53.652Z,84.50
2023-05-18T14:59:21.197Z,85.60
2023-05-18T15:01:47.901Z,84.40
2023-05-18T15:04:14.906Z,85.20
2023-05-18T15:06:41.742Z,85.10
2023-05-18T15:09:08.509Z,85.80
2023-05-18T15:11:35.194Z,85.10
2023-05-18T15:14:01.868Z,85.00
2023-05-18T15:16:28.691Z,84.60
2023-05-18T15:18:55.499Z,83.90
2023-05-18T15:21:22.287Z,84.30
2023-05-18T15:23:49.022Z,84.70
2023-05-18T15:26:15.882Z,84.90
2023-05-18T15:28:44.885Z,85.10
2023-05-18T15:31:11.754Z,85.30
2023-05-18T15:33:42.199Z,86.10
2023-05-18T15:36:09.366Z,85.60
2023-05-18T15:38:36.164Z,85.80
2023-05-18T15:41:02.820Z,85.60
2023-05-18T15:43:30.434Z,86.40
2023-05-18T15:45:58.449Z,85.00
2023-05-18T15:48:25.256Z,85.20
2023-05-18T15:50:52.010Z,84.50
2023-05-18T15:53:18.783Z,84.90
2023-05-18T15:55:45.693Z,84.60
2023-05-18T15:58:13.485Z,84.90
2023-05-18T16:00:40.525Z,84.50
2023-05-18T16:03:07.398Z,87.10
2023-05-18T16:05:34.331Z,85.80
2023-05-18T16:08:01.353Z,85.30
2023-05-18T16:10:28.056Z,86.30
2023-05-18T16:12:54.691Z,87.10
2023-05-18T16:15:24.378Z,87.50
2023-05-18T16:17:51.259Z,86.90
2023-05-18T16:20:18.586Z,87.10
2023-05-18T16:22:46.860Z,87.50
2023-05-18T16:25:13.751Z,87.80
2023-05-18T16:27:40.600Z,88.50
2023-05-18T16:30:07.951Z,87.70
2023-05-18T16:32:34.937Z,87.70
2023-05-18T16:35:02.056Z,87.60
2023-05-18T16:37:28.776Z,87.70
2023-05-18T16:39:55.412Z,87.40
2023-05-18T16:42:22.983Z,88.20
2023-05-18T16:44:49.824Z,88.80
2023-05-18T16:47:16.518Z,89.20
2023-05-18T16:49:45.445Z,89.70
2023-05-18T16:52:12.275Z,90.00
2023-05-18T16:54:38.926Z,90.10
2023-05-18T16:57:06.318Z,89.10
2023-05-18T16:59:34.369Z,89.90
2023-05-18T17:02:01.743Z,90.20
2023-05-18T17:04:28.554Z,90.00
2023-05-18T17:06:55.739Z,90.00
2023-05-18T17:09:22.403Z,90.20
2023-05-18T17:11:49.202Z,90.50
2023-05-18T17:14:15.849Z,90.80
2023-05-18T17:16:42.518Z,90.70
2023-05-18T17:19:09.554Z,90.70
2023-05-18T17:21:36.240Z,90.90
2023-05-18T17:24:03.084Z,91.00
2023-05-18T17:26:33.296Z,91.10
2023-05-18T17:29:00.021Z,91.60
2023-05-18T17:31:27.158Z,91.30
2023-05-18T17:33:54.572Z,91.40
2023-05-18T17:36:21.397Z,91.40
2023-05-18T17:38:48.377Z,91.40
2023-05-18T17:41:15.528Z,91.20
2023-05-18T17:43:42.363Z,91.30
2023-05-18T17:46:09.067Z,91.60
2023-05-18T17:48:35.812Z,91.60
2023-05-18T17:51:02.872Z,91.60
2023-05-18T17:53:29.774Z,91.70
2023-05-18T17:55:56.457Z,91.60
2023-05-18T17:58:23.109Z,91.80
2023-05-18T18:00:49.722Z,91.90
2023-05-18T18:03:17.272Z,91.90
2023-05-18T18:05:44.098Z,92.00
2023-05-18T18:08:10.880Z,91.90
2023-05-18T18:10:37.619Z,92.20
2023-05-18T18:13:04.289Z,92.40
2023-05-18T18:15:31.087Z,92.80
2023-05-18T18:17:57.757Z,92.60
2023-05-18T18:20:24.486Z,92.50
2023-05-18T18:22:51.165Z,92.10
2023-05-18T18:25:17.954Z,92.30
2023-05-18T18:27:44.634Z,92.40
2023-05-18T18:30:12.043Z,92.50
2023-05-18T18:32:38.676Z,92.20
2023-05-18T18:35:05.953Z,92.60
2023-05-18T18:37:32.723Z,92.60
2023-05-18T18:39:59.409Z,92.90
2023-05-18T18:42:26.036Z,92.50
2023-05-18T18:44:56.721Z,92.70
2023-05-18T18:47:23.785Z,92.60
2023-05-18T18:49:50.793Z,92.50
2023-05-18T18:52:18.246Z,92.70
2023-05-18T18:54:45.261Z,92.60
2023-05-18T18:57:12.154Z,92.90
2023-05-18T18:59:39.298Z,92.90
2023-05-18T19:02:06.187Z,93.00
2023-05-18T19:04:33.193Z,93.20
2023-05-18T19:07:02.916Z,93.20
2023-05-18T19:09:34.919Z,93.20
2023-05-18T19:12:02.119Z,93.10
2023-05-18T19:14:28.839Z,93.30
2023-05-18T19:16:56.116Z,93.20
2023-05-18T19:19:23.126Z,93.40
2023-05-18T19:21:50.500Z,93.70
2023-05-18T19:24:17.279Z,93.50
2023-05-18T19:26:44.048Z,94.00
2023-05-18T19:29:11.042Z,94.10
2023-05-18T19:31:37.894Z,93.60
2023-05-18T19:34:04.942Z,93.60
2023-05-18T19:36:31.692Z,93.80
2023-05-18T19:38:58.405Z,93.70
2023-05-18T19:41:25.100Z,93.80
2023-05-18T19:43:51.898Z,93.80
2023-05-18T19:46:19.292Z,93.80
2023-05-18T19:48:46.745Z,93.90
2023-05-18T19:51:13.538Z,94.00
2023-05-18T19:53:40.337Z,94.20
2023-05-18T19:56:07.129Z,94.10
2023-05-18T19:58:33.754Z,94.30
2023-05-18T20:01:00.657Z,94.30
2023-05-18T20:03:27.776Z,94.20
2023-05-18T20:05:56.150Z,94.10
2023-05-18T20:08:22.993Z,94.00
2023-05-18T20:10:49.922Z,94.20
2023-05-18T20:13:16.558Z,94.40
2023-05-18T20:15:43.661Z,93.90
2023-05-18T20:18:10.458Z,94.00
2023-05-18T20:20:37.781Z,94.20
2023-05-18T20:23:07.532Z,94.20
2023-05-18T20:25:37.380Z,94.00
2023-05-18T20:28:07.276Z,94.20
2023-05-18T20:30:34.525Z,94.30
2023-05-18T20:33:03.841Z,94.10
2023-05-18T20:35:31.056Z,94.50
2023-05-18T20:37:59.606Z,94.40
2023-05-18T20:40:27.621Z,94.80
2023-05-18T20:42:54.463Z,94.30
2023-05-18T20:45:22.716Z,94.30
2023-05-18T20:47:52.280Z,94.50
2023-05-18T20:50:19.582Z,94.50
2023-05-18T20:52:46.795Z,94.60
2023-05-18T20:55:14.834Z,94.60
2023-05-18T20:57:44.623Z,94.50
2023-05-18T21:00:13.025Z,94.70
2023-05-18T21:02:41.676Z,94.60
2023-05-18T21:05:08.880Z,94.50
2023-05-18T21:07:40.051Z,95.20
2023-05-18T21:10:08.484Z,94.80
2023-05-18T21:12:35.610Z,94.80
2023-05-18T21:15:02.652Z,95.00
2023-05-18T21:17:29.367Z,95.10
2023-05-18T21:19:56.057Z,94.90
2023-05-18T21:22:22.878Z,95.20
2023-05-18T21:24:49.578Z,95.10
2023-05-18T21:27:16.309Z,95.00
2023-05-18T21:29:43.429Z,95.10
2023-05-18T21:32:10.303Z,95.20
2023-05-18T21:34:37.068Z,95.30
2023-05-18T21:37:03.863Z,95.10
2023-05-18T21:39:30.684Z,95.10
2023-05-18T21:41:57.312Z,95.10
2023-05-18T21:44:23.959Z,95.10
2023-05-18T21:46:55.184Z,95.30
2023-05-18T21:49:21.922Z,95.20
2023-05-18T21:51:48.621Z,95.40
2023-05-18T21:54:15.541Z,95.30
2023-05-18T21:56:42.310Z,95.50
2023-05-18T21:59:08.917Z,95.40
2023-05-18T22:01:35.820Z,95.50
2023-05-18T22:04:02.737Z,95.70
2023-05-18T22:06:29.436Z,95.50
2023-05-18T22:08:56.101Z,95.70
2023-05-18T22:11:22.734Z,95.80
2023-05-18T22:13:49.467Z,95.80
2023-05-18T22:16:16.257Z,95.60
2023-05-18T22:18:42.965Z,95.90
2023-05-18T22:21:09.637Z,95.60
2023-05-18T22:23:36.450Z,95.70
2023-05-18T22:26:03.144Z,95.90
2023-05-18T22:28:29.869Z,96.00
2023-05-18T22:30:56.492Z,95.90
2023-05-18T22:33:23.439Z,95.90
2023-05-18T22:35:50.248Z,96.00
2023-05-18T22:38:17.693Z,95.90
2023-05-18T22:40:45.295Z,96.20
2023-05-18T22:43:12.076Z,95.80
2023-05-18T22:45:38.775Z,96.10
2023-05-18T22:48:05.701Z,96.30
2023-05-18T22:50:32.621Z,96.30
2023-05-18T22:52:59.455Z,96.40
2023-05-18T22:55:26.191Z,96.50
2023-05-18T22:57:52.839Z,96.40
2023-05-18T23:00:19.487Z,96.30
2023-05-18T23:02:46.330Z,96.50
2023-05-18T23:05:13.469Z,96.40
2023-05-18T23:07:41.751Z,96.30
2023-05-18T23:10:11.193Z,96.40
2023-05-18T23:12:38.465Z,96.40
2023-05-18T23:15:07.701Z,96.30
2023-05-18T23:17:34.475Z,96.50
2023-05-18T23:20:07.462Z,96.50
2023-05-18T23:22:34.910Z,96.50
2023-05-18T23:25:04.366Z,96.60
2023-05-18T23:27:31.357Z,96.60
2023-05-18T23:29:58.026Z,96.60
2023-05-18T23:32:25.089Z,96.30
2023-05-18T23:34:52.977Z,96.80
2023-05-18T23:37:21.486Z,96.60
2023-05-18T23:39:51.713Z,97.00
2023-05-18T23:42:23.708Z,96.80
2023-05-18T23:44:50.868Z,97.40
2023-05-18T23:47:17.874Z,97.20
2023-05-18T23:49:45.385Z,97.20
2023-05-18T23:52:13.540Z,96.80
2023-05-18T23:54:40.968Z,96.70
2023-05-18T23:57:08.256Z,96.90
2023-05-18T23:59:35.896Z,97.10
